SBI1558 EDDL-LSZH
Flight info
| Callsign | SBI1558 |
|---|---|
| Flight time | 1h 3m |
| Altitude | 31000 |
| Route | DODE7Z DODEN Y852 TUSUK ULNOK L607 SUNEG T721 RILAX RILA2A |
| Aircraft | A20N/M-SDE2E3FGHIJ1RWXY/LB1 |
Departure
| Time | 2026-05-05 19:05 |
|---|---|
| Airport | Düsseldorf Airport (EDDL) |
Arrival
| Time | 2026-05-05 20:09 |
|---|---|
| Airport | Zürich Airport (LSZH) |
| Time | Latitude | Longitude | Altitude | Speed | Heading |
|---|---|---|---|---|---|
| 2026-05-05 18:24 | 51.28414 | 6.77242 | 132 ft | 0 kts | 143° |
| 2026-05-05 18:39 | 51.28415 | 6.77241 | 160 ft | 1 kts | 143° |
| 2026-05-05 18:39 | 51.28421 | 6.77234 | 160 ft | 1 kts | 143° |
| 2026-05-05 18:39 | 51.28427 | 6.77226 | 132 ft | 1 kts | 143° |
| 2026-05-05 18:39 | 51.28433 | 6.77219 | 132 ft | 1 kts | 143° |
| 2026-05-05 18:40 | 51.28439 | 6.77211 | 133 ft | 1 kts | 143° |
| 2026-05-05 18:40 | 51.28446 | 6.77204 | 133 ft | 1 kts | 159° |
| 2026-05-05 18:40 | 51.28450 | 6.77201 | 133 ft | 1 kts | 166° |
| 2026-05-05 18:40 | 51.28458 | 6.77199 | 133 ft | 1 kts | 181° |
| 2026-05-05 18:41 | 51.28466 | 6.77200 | 134 ft | 2 kts | 201° |
| 2026-05-05 18:41 | 51.28474 | 6.77206 | 134 ft | 0 kts | 231° |
| 2026-05-05 18:44 | 51.28474 | 6.77205 | 134 ft | 1 kts | 231° |
| 2026-05-05 18:44 | 51.28468 | 6.77194 | 134 ft | 3 kts | 232° |
| 2026-05-05 18:44 | 51.28441 | 6.77138 | 133 ft | 10 kts | 232° |
| 2026-05-05 18:44 | 51.28389 | 6.77032 | 133 ft | 14 kts | 232° |
| 2026-05-05 18:45 | 51.28354 | 6.76889 | 132 ft | 10 kts | 292° |
| 2026-05-05 18:45 | 51.28386 | 6.76850 | 134 ft | 5 kts | 337° |
| 2026-05-05 18:45 | 51.28413 | 6.76820 | 135 ft | 5 kts | 324° |
| 2026-05-05 18:45 | 51.28456 | 6.76775 | 136 ft | 9 kts | 338° |
| 2026-05-05 18:46 | 51.28509 | 6.76801 | 138 ft | 6 kts | 49° |
| 2026-05-05 18:46 | 51.28544 | 6.76881 | 139 ft | 13 kts | 52° |
| 2026-05-05 18:46 | 51.28614 | 6.77025 | 141 ft | 19 kts | 52° |
| 2026-05-05 18:46 | 51.28703 | 6.77221 | 140 ft | 26 kts | 53° |
| 2026-05-05 18:47 | 51.28822 | 6.77470 | 139 ft | 31 kts | 54° |
| 2026-05-05 18:47 | 51.28898 | 6.77666 | 140 ft | 14 kts | 85° |
| 2026-05-05 18:47 | 51.28859 | 6.77766 | 137 ft | 10 kts | 150° |
| 2026-05-05 18:47 | 51.28760 | 6.77853 | 133 ft | 19 kts | 158° |
| 2026-05-05 18:48 | 51.28717 | 6.77835 | 132 ft | 10 kts | 223° |
| 2026-05-05 18:48 | 51.28663 | 6.77699 | 132 ft | 17 kts | 259° |
| 2026-05-05 18:48 | 51.28630 | 6.77546 | 133 ft | 15 kts | 226° |
| 2026-05-05 18:48 | 51.28547 | 6.77369 | 134 ft | 24 kts | 234° |
| 2026-05-05 18:49 | 51.28436 | 6.77120 | 133 ft | 31 kts | 231° |
| 2026-05-05 18:49 | 51.28360 | 6.76903 | 132 ft | 14 kts | 281° |
| 2026-05-05 18:49 | 51.28411 | 6.76826 | 135 ft | 9 kts | 326° |
| 2026-05-05 18:49 | 51.28456 | 6.76740 | 136 ft | 12 kts | 280° |
| 2026-05-05 18:50 | 51.28420 | 6.76633 | 133 ft | 12 kts | 228° |
| 2026-05-05 18:50 | 51.28415 | 6.76625 | 133 ft | 0 kts | 228° |
| 2026-05-05 18:51 | 51.28414 | 6.76623 | 133 ft | 1 kts | 228° |
| 2026-05-05 18:51 | 51.28404 | 6.76602 | 133 ft | 4 kts | 232° |
| 2026-05-05 18:51 | 51.28375 | 6.76541 | 133 ft | 10 kts | 234° |
| 2026-05-05 18:52 | 51.28320 | 6.76417 | 131 ft | 17 kts | 234° |
| 2026-05-05 18:52 | 51.28240 | 6.76247 | 133 ft | 21 kts | 233° |
| 2026-05-05 18:52 | 51.28145 | 6.76046 | 133 ft | 24 kts | 231° |
| 2026-05-05 18:52 | 51.28035 | 6.75821 | 127 ft | 19 kts | 233° |
| 2026-05-05 18:53 | 51.28017 | 6.75783 | 131 ft | 0 kts | 232° |
| 2026-05-05 18:54 | 51.28011 | 6.75770 | 127 ft | 3 kts | 232° |
| 2026-05-05 18:54 | 51.27984 | 6.75713 | 127 ft | 10 kts | 232° |
| 2026-05-05 18:54 | 51.27972 | 6.75689 | 128 ft | 0 kts | 232° |
| 2026-05-05 18:56 | 51.27971 | 6.75687 | 128 ft | 1 kts | 232° |
| 2026-05-05 18:56 | 51.27954 | 6.75652 | 128 ft | 8 kts | 232° |
| 2026-05-05 18:56 | 51.27909 | 6.75558 | 126 ft | 0 kts | 233° |
| 2026-05-05 18:58 | 51.27909 | 6.75557 | 126 ft | 2 kts | 232° |
| 2026-05-05 18:58 | 51.27904 | 6.75546 | 123 ft | 2 kts | 232° |
| 2026-05-05 18:58 | 51.27878 | 6.75492 | 125 ft | 10 kts | 232° |
| 2026-05-05 18:58 | 51.27860 | 6.75455 | 121 ft | 3 kts | 232° |
| 2026-05-05 18:59 | 51.27859 | 6.75454 | 121 ft | 0 kts | 232° |
| 2026-05-05 18:59 | 51.27847 | 6.75424 | 123 ft | 6 kts | 240° |
| 2026-05-05 18:59 | 51.27844 | 6.75417 | 124 ft | 0 kts | 240° |
| 2026-05-05 19:00 | 51.27843 | 6.75413 | 124 ft | 2 kts | 240° |
| 2026-05-05 19:00 | 51.27843 | 6.75366 | 124 ft | 7 kts | 289° |
| 2026-05-05 19:00 | 51.27850 | 6.75352 | 123 ft | 0 kts | 315° |
| 2026-05-05 19:01 | 51.27865 | 6.75333 | 124 ft | 6 kts | 329° |
| 2026-05-05 19:01 | 51.27892 | 6.75312 | 123 ft | 0 kts | 332° |
| 2026-05-05 19:03 | 51.27911 | 6.75297 | 121 ft | 7 kts | 332° |
| 2026-05-05 19:03 | 51.27972 | 6.75274 | 122 ft | 11 kts | 12° |
| 2026-05-05 19:04 | 51.28036 | 6.75358 | 121 ft | 13 kts | 52° |
| 2026-05-05 19:04 | 51.28047 | 6.75383 | 121 ft | 0 kts | 52° |
| 2026-05-05 19:04 | 51.28063 | 6.75414 | 123 ft | 20 kts | 52° |
| 2026-05-05 19:05 | 51.28327 | 6.75959 | 126 ft | 102 kts | 53° |
| 2026-05-05 19:05 | 51.28889 | 6.77139 | 148 ft | 162 kts | 53° |
| 2026-05-05 19:05 | 51.29576 | 6.78653 | 794 ft | 171 kts | 50° |
| 2026-05-05 19:05 | 51.30314 | 6.80166 | 1773 ft | 176 kts | 50° |
| 2026-05-05 19:06 | 51.31125 | 6.81735 | 2526 ft | 196 kts | 53° |
| 2026-05-05 19:06 | 51.31920 | 6.83631 | 3076 ft | 218 kts | 59° |
| 2026-05-05 19:06 | 51.32818 | 6.85727 | 3649 ft | 240 kts | 54° |
| 2026-05-05 19:06 | 51.33879 | 6.87945 | 4319 ft | 258 kts | 53° |
| 2026-05-05 19:07 | 51.34889 | 6.90402 | 5215 ft | 265 kts | 68° |
| 2026-05-05 19:07 | 51.35235 | 6.93250 | 6135 ft | 269 kts | 92° |
| 2026-05-05 19:07 | 51.34976 | 6.96241 | 7023 ft | 274 kts | 99° |
| 2026-05-05 19:07 | 51.34560 | 6.99233 | 7926 ft | 279 kts | 112° |
| 2026-05-05 19:08 | 51.33524 | 7.01863 | 8820 ft | 283 kts | 128° |
| 2026-05-05 19:08 | 51.32286 | 7.04352 | 9744 ft | 288 kts | 129° |
| 2026-05-05 19:08 | 51.30998 | 7.06881 | 10396 ft | 302 kts | 130° |
| 2026-05-05 19:08 | 51.29618 | 7.09575 | 10738 ft | 325 kts | 130° |
| 2026-05-05 19:09 | 51.28149 | 7.12446 | 11215 ft | 339 kts | 130° |
| 2026-05-05 19:09 | 51.26652 | 7.15382 | 12057 ft | 342 kts | 130° |
| 2026-05-05 19:09 | 51.25147 | 7.18335 | 12896 ft | 346 kts | 130° |
| 2026-05-05 19:09 | 51.23620 | 7.21334 | 13731 ft | 349 kts | 130° |
| 2026-05-05 19:10 | 51.22083 | 7.24349 | 14480 ft | 351 kts | 130° |
| 2026-05-05 19:10 | 51.20533 | 7.27383 | 15197 ft | 355 kts | 130° |
| 2026-05-05 19:10 | 51.18963 | 7.30453 | 15917 ft | 359 kts | 130° |
| 2026-05-05 19:10 | 51.17376 | 7.33552 | 16644 ft | 363 kts | 130° |
| 2026-05-05 19:11 | 51.15769 | 7.36684 | 17354 ft | 367 kts | 130° |
| 2026-05-05 19:11 | 51.14149 | 7.39839 | 18043 ft | 370 kts | 130° |
| 2026-05-05 19:11 | 51.12510 | 7.43026 | 18678 ft | 373 kts | 130° |
| 2026-05-05 19:11 | 51.10861 | 7.46229 | 19321 ft | 375 kts | 130° |
| 2026-05-05 19:12 | 51.09204 | 7.49444 | 19960 ft | 377 kts | 130° |
| 2026-05-05 19:12 | 51.07529 | 7.52689 | 20572 ft | 380 kts | 130° |
| 2026-05-05 19:12 | 51.05848 | 7.55941 | 21196 ft | 383 kts | 130° |
| 2026-05-05 19:12 | 51.04151 | 7.59220 | 21825 ft | 385 kts | 130° |
| 2026-05-05 19:13 | 51.02439 | 7.62524 | 22424 ft | 388 kts | 130° |
| 2026-05-05 19:13 | 51.00714 | 7.65850 | 23016 ft | 391 kts | 130° |
| 2026-05-05 19:13 | 50.98976 | 7.69192 | 23543 ft | 394 kts | 131° |
| 2026-05-05 19:13 | 50.97099 | 7.72374 | 23757 ft | 395 kts | 137° |
| 2026-05-05 19:14 | 50.95002 | 7.75182 | 23816 ft | 395 kts | 144° |
| 2026-05-05 19:14 | 50.92720 | 7.77584 | 23815 ft | 394 kts | 149° |
| 2026-05-05 19:14 | 50.90385 | 7.79851 | 23811 ft | 394 kts | 149° |
| 2026-05-05 19:14 | 50.88049 | 7.82135 | 23812 ft | 394 kts | 148° |
| 2026-05-05 19:15 | 50.85715 | 7.84426 | 23809 ft | 394 kts | 148° |
| 2026-05-05 19:15 | 50.83388 | 7.86712 | 23807 ft | 394 kts | 148° |
| 2026-05-05 19:15 | 50.81083 | 7.88975 | 23940 ft | 395 kts | 148° |
| 2026-05-05 19:15 | 50.78722 | 7.91289 | 24510 ft | 395 kts | 148° |
| 2026-05-05 19:16 | 50.76400 | 7.93563 | 24731 ft | 400 kts | 148° |
| 2026-05-05 19:16 | 50.74034 | 7.95876 | 24800 ft | 400 kts | 148° |
| 2026-05-05 19:16 | 50.71667 | 7.98187 | 24801 ft | 400 kts | 148° |
| 2026-05-05 19:16 | 50.69299 | 8.00496 | 24801 ft | 400 kts | 148° |
| 2026-05-05 19:17 | 50.66936 | 8.02795 | 24799 ft | 400 kts | 149° |
| 2026-05-05 19:17 | 50.64394 | 8.04655 | 25006 ft | 404 kts | 162° |
| 2026-05-05 19:17 | 50.61697 | 8.05880 | 25581 ft | 404 kts | 163° |
| 2026-05-05 19:17 | 50.58988 | 8.07099 | 26067 ft | 406 kts | 163° |
| 2026-05-05 19:18 | 50.56262 | 8.08308 | 26527 ft | 409 kts | 163° |
| 2026-05-05 19:18 | 50.53529 | 8.09500 | 26980 ft | 411 kts | 163° |
| 2026-05-05 19:18 | 50.50762 | 8.10696 | 27419 ft | 413 kts | 163° |
| 2026-05-05 19:18 | 50.47982 | 8.11890 | 27841 ft | 415 kts | 163° |
| 2026-05-05 19:19 | 50.45190 | 8.13085 | 28252 ft | 418 kts | 163° |
| 2026-05-05 19:19 | 50.42381 | 8.14286 | 28652 ft | 420 kts | 163° |
| 2026-05-05 19:19 | 50.39552 | 8.15493 | 29037 ft | 422 kts | 163° |
| 2026-05-05 19:19 | 50.36715 | 8.16703 | 29413 ft | 424 kts | 163° |
| 2026-05-05 19:20 | 50.33860 | 8.17919 | 29768 ft | 426 kts | 163° |
| 2026-05-05 19:20 | 50.30987 | 8.19142 | 30122 ft | 428 kts | 163° |
| 2026-05-05 19:20 | 50.29087 | 8.19950 | 30361 ft | 429 kts | 163° |
| 2026-05-05 19:20 | 50.25226 | 8.21589 | 30754 ft | 431 kts | 163° |
| 2026-05-05 19:21 | 50.20372 | 8.23647 | 30827 ft | 431 kts | 163° |
| 2026-05-05 19:21 | 50.14584 | 8.26094 | 30830 ft | 431 kts | 163° |
| 2026-05-05 19:22 | 50.08831 | 8.28521 | 30832 ft | 432 kts | 163° |
| 2026-05-05 19:22 | 50.03029 | 8.30963 | 30834 ft | 432 kts | 163° |
| 2026-05-05 19:23 | 49.97223 | 8.33400 | 30848 ft | 434 kts | 163° |
| 2026-05-05 19:23 | 49.94877 | 8.34383 | 31108 ft | 435 kts | 163° |
| 2026-05-05 19:23 | 49.91979 | 8.35596 | 31837 ft | 424 kts | 163° |
| 2026-05-05 19:24 | 49.89152 | 8.36776 | 32507 ft | 419 kts | 163° |
| 2026-05-05 19:24 | 49.86326 | 8.37956 | 32755 ft | 423 kts | 163° |
| 2026-05-05 19:24 | 49.80614 | 8.40339 | 32824 ft | 426 kts | 164° |
| 2026-05-05 19:25 | 49.74890 | 8.42719 | 32822 ft | 426 kts | 164° |
| 2026-05-05 19:25 | 49.69168 | 8.45093 | 32822 ft | 426 kts | 164° |
| 2026-05-05 19:26 | 49.63439 | 8.47465 | 32825 ft | 426 kts | 164° |
| 2026-05-05 19:26 | 49.57699 | 8.49838 | 32835 ft | 426 kts | 163° |
| 2026-05-05 19:27 | 49.54887 | 8.51161 | 33041 ft | 422 kts | 163° |
| 2026-05-05 19:27 | 49.52031 | 8.52345 | 32819 ft | 426 kts | 165° |
| 2026-05-05 19:27 | 49.46273 | 8.54587 | 32829 ft | 428 kts | 165° |
| 2026-05-05 19:28 | 49.40510 | 8.56904 | 32835 ft | 428 kts | 165° |
| 2026-05-05 19:28 | 49.34759 | 8.59282 | 32830 ft | 428 kts | 165° |
| 2026-05-05 19:29 | 49.28998 | 8.61610 | 32827 ft | 428 kts | 165° |
| 2026-05-05 19:29 | 49.23239 | 8.63942 | 32827 ft | 429 kts | 165° |
| 2026-05-05 19:30 | 49.17464 | 8.66284 | 32827 ft | 429 kts | 165° |
| 2026-05-05 19:30 | 49.11686 | 8.68624 | 32825 ft | 433 kts | 165° |
| 2026-05-05 19:31 | 49.05769 | 8.71013 | 32750 ft | 441 kts | 165° |
| 2026-05-05 19:31 | 49.02833 | 8.72198 | 32406 ft | 433 kts | 165° |
| 2026-05-05 19:31 | 48.99933 | 8.73366 | 31775 ft | 429 kts | 165° |
| 2026-05-05 19:32 | 48.97045 | 8.74527 | 31024 ft | 430 kts | 166° |
| 2026-05-05 19:32 | 48.94143 | 8.75692 | 30265 ft | 441 kts | 166° |
| 2026-05-05 19:32 | 48.91139 | 8.76727 | 29459 ft | 432 kts | 172° |
| 2026-05-05 19:32 | 48.88216 | 8.77150 | 28628 ft | 423 kts | 179° |
| 2026-05-05 19:33 | 48.85310 | 8.76995 | 27816 ft | 414 kts | 186° |
| 2026-05-05 19:33 | 48.82485 | 8.76322 | 27022 ft | 409 kts | 190° |
| 2026-05-05 19:33 | 48.79689 | 8.75547 | 26248 ft | 407 kts | 190° |
| 2026-05-05 19:33 | 48.76922 | 8.74795 | 25497 ft | 403 kts | 189° |
| 2026-05-05 19:34 | 48.74168 | 8.74055 | 25046 ft | 400 kts | 189° |
| 2026-05-05 19:34 | 48.71442 | 8.73325 | 24878 ft | 395 kts | 189° |
| 2026-05-05 19:34 | 48.68731 | 8.72602 | 24836 ft | 397 kts | 189° |
| 2026-05-05 19:35 | 48.63311 | 8.71158 | 24295 ft | 393 kts | 189° |
| 2026-05-05 19:35 | 48.60621 | 8.70441 | 23784 ft | 391 kts | 189° |
| 2026-05-05 19:35 | 48.57951 | 8.69731 | 23204 ft | 389 kts | 189° |
| 2026-05-05 19:35 | 48.55300 | 8.69028 | 22598 ft | 385 kts | 189° |
| 2026-05-05 19:36 | 48.52667 | 8.68331 | 21971 ft | 382 kts | 190° |
| 2026-05-05 19:36 | 48.50062 | 8.67641 | 21384 ft | 379 kts | 190° |
| 2026-05-05 19:36 | 48.47475 | 8.66956 | 20785 ft | 376 kts | 190° |
| 2026-05-05 19:36 | 48.44904 | 8.66277 | 20212 ft | 373 kts | 190° |
| 2026-05-05 19:37 | 48.42359 | 8.65604 | 19644 ft | 371 kts | 191° |
| 2026-05-05 19:37 | 48.39823 | 8.64935 | 19085 ft | 368 kts | 191° |
| 2026-05-05 19:37 | 48.37306 | 8.64268 | 18539 ft | 366 kts | 191° |
| 2026-05-05 19:37 | 48.34827 | 8.63546 | 18079 ft | 361 kts | 193° |
| 2026-05-05 19:38 | 48.32381 | 8.62791 | 17888 ft | 360 kts | 193° |
| 2026-05-05 19:38 | 48.29918 | 8.62026 | 17860 ft | 362 kts | 193° |
| 2026-05-05 19:38 | 48.27449 | 8.61268 | 17862 ft | 362 kts | 193° |
| 2026-05-05 19:38 | 48.24979 | 8.60518 | 17851 ft | 362 kts | 193° |
| 2026-05-05 19:39 | 48.22512 | 8.59772 | 17858 ft | 361 kts | 193° |
| 2026-05-05 19:39 | 48.20048 | 8.59030 | 17864 ft | 361 kts | 193° |
| 2026-05-05 19:39 | 48.17587 | 8.58292 | 17867 ft | 361 kts | 193° |
| 2026-05-05 19:39 | 48.15132 | 8.57557 | 17866 ft | 360 kts | 193° |
| 2026-05-05 19:40 | 48.12669 | 8.56823 | 17861 ft | 360 kts | 193° |
| 2026-05-05 19:40 | 48.10235 | 8.56098 | 17868 ft | 359 kts | 193° |
| 2026-05-05 19:40 | 48.07780 | 8.55368 | 17871 ft | 359 kts | 193° |
| 2026-05-05 19:40 | 48.05336 | 8.54642 | 17789 ft | 357 kts | 193° |
| 2026-05-05 19:41 | 48.02906 | 8.53921 | 17437 ft | 355 kts | 193° |
| 2026-05-05 19:41 | 48.00490 | 8.53205 | 16937 ft | 353 kts | 193° |
| 2026-05-05 19:41 | 47.98094 | 8.52495 | 16374 ft | 350 kts | 193° |
| 2026-05-05 19:41 | 47.95671 | 8.52189 | 15813 ft | 352 kts | 178° |
| 2026-05-05 19:42 | 47.93289 | 8.53060 | 15251 ft | 356 kts | 159° |
| 2026-05-05 19:42 | 47.91224 | 8.55077 | 14971 ft | 357 kts | 144° |
| 2026-05-05 19:42 | 47.89290 | 8.57447 | 14887 ft | 362 kts | 144° |
| 2026-05-05 19:42 | 47.87341 | 8.59828 | 14878 ft | 361 kts | 144° |
| 2026-05-05 19:43 | 47.85401 | 8.62192 | 14878 ft | 361 kts | 144° |
| 2026-05-05 19:43 | 47.83455 | 8.64559 | 14878 ft | 361 kts | 144° |
| 2026-05-05 19:43 | 47.81504 | 8.66926 | 14879 ft | 362 kts | 144° |
| 2026-05-05 19:43 | 47.79552 | 8.69292 | 14883 ft | 362 kts | 144° |
| 2026-05-05 19:44 | 47.77604 | 8.71653 | 14777 ft | 360 kts | 144° |
| 2026-05-05 19:44 | 47.75665 | 8.74000 | 14426 ft | 359 kts | 144° |
| 2026-05-05 19:44 | 47.73738 | 8.76330 | 14045 ft | 356 kts | 144° |
| 2026-05-05 19:44 | 47.71815 | 8.78651 | 13920 ft | 357 kts | 144° |
| 2026-05-05 19:45 | 47.69879 | 8.80983 | 13891 ft | 359 kts | 144° |
| 2026-05-05 19:45 | 47.67937 | 8.83321 | 13895 ft | 359 kts | 144° |
| 2026-05-05 19:45 | 47.65999 | 8.85653 | 13889 ft | 359 kts | 144° |
| 2026-05-05 19:45 | 47.64059 | 8.87994 | 13885 ft | 360 kts | 143° |
| 2026-05-05 19:46 | 47.62345 | 8.90563 | 13876 ft | 349 kts | 133° |
| 2026-05-05 19:46 | 47.60973 | 8.93495 | 13878 ft | 335 kts | 123° |
| 2026-05-05 19:46 | 47.59930 | 8.96489 | 13876 ft | 319 kts | 120° |
| 2026-05-05 19:46 | 47.58959 | 8.99304 | 13893 ft | 303 kts | 121° |
| 2026-05-05 19:47 | 47.58016 | 9.02007 | 13874 ft | 287 kts | 121° |
| 2026-05-05 19:47 | 47.57120 | 9.04552 | 13875 ft | 270 kts | 123° |
| 2026-05-05 19:47 | 47.55903 | 9.06593 | 13890 ft | 266 kts | 152° |
| 2026-05-05 19:47 | 47.54216 | 9.07540 | 13891 ft | 256 kts | 180° |
| 2026-05-05 19:48 | 47.52504 | 9.07199 | 13891 ft | 247 kts | 205° |
| 2026-05-05 19:48 | 47.51040 | 9.05873 | 13885 ft | 244 kts | 225° |
| 2026-05-05 19:48 | 47.50015 | 9.03904 | 13888 ft | 242 kts | 244° |
| 2026-05-05 19:48 | 47.49548 | 9.01530 | 13888 ft | 243 kts | 265° |
| 2026-05-05 19:49 | 47.49724 | 8.99075 | 13888 ft | 247 kts | 286° |
| 2026-05-05 19:49 | 47.50202 | 8.97506 | 13890 ft | 250 kts | 295° |
| 2026-05-05 19:49 | 47.51276 | 8.94504 | 13888 ft | 249 kts | 294° |
| 2026-05-05 19:49 | 47.52076 | 8.92233 | 13889 ft | 248 kts | 294° |
| 2026-05-05 19:50 | 47.52879 | 8.89935 | 13887 ft | 248 kts | 294° |
| 2026-05-05 19:50 | 47.53690 | 8.87675 | 13877 ft | 250 kts | 300° |
| 2026-05-05 19:50 | 47.54907 | 8.85806 | 13882 ft | 259 kts | 322° |
| 2026-05-05 19:50 | 47.56571 | 8.84816 | 13886 ft | 269 kts | 348° |
| 2026-05-05 19:51 | 47.58454 | 8.85013 | 13889 ft | 279 kts | 15° |
| 2026-05-05 19:51 | 47.59860 | 8.86137 | 13883 ft | 284 kts | 39° |
| 2026-05-05 19:51 | 47.61058 | 8.88451 | 13889 ft | 287 kts | 68° |
| 2026-05-05 19:51 | 47.61437 | 8.91308 | 13885 ft | 282 kts | 97° |
| 2026-05-05 19:52 | 47.60920 | 8.94055 | 13891 ft | 276 kts | 122° |
| 2026-05-05 19:52 | 47.60003 | 8.96552 | 13891 ft | 275 kts | 123° |
| 2026-05-05 19:52 | 47.59077 | 8.99020 | 13890 ft | 274 kts | 123° |
| 2026-05-05 19:52 | 47.58164 | 9.01510 | 13890 ft | 275 kts | 122° |
| 2026-05-05 19:53 | 47.57264 | 9.03997 | 13886 ft | 272 kts | 126° |
| 2026-05-05 19:53 | 47.56002 | 9.06007 | 13887 ft | 265 kts | 152° |
| 2026-05-05 19:53 | 47.54328 | 9.06991 | 13888 ft | 257 kts | 177° |
| 2026-05-05 19:53 | 47.52588 | 9.06843 | 13888 ft | 249 kts | 201° |
| 2026-05-05 19:54 | 47.51081 | 9.05688 | 13890 ft | 244 kts | 223° |
| 2026-05-05 19:54 | 47.50021 | 9.03774 | 13818 ft | 240 kts | 244° |
| 2026-05-05 19:54 | 47.49556 | 9.01433 | 13538 ft | 239 kts | 265° |
| 2026-05-05 19:54 | 47.49761 | 8.98984 | 13128 ft | 244 kts | 289° |
| 2026-05-05 19:55 | 47.50744 | 8.96879 | 12533 ft | 260 kts | 317° |
| 2026-05-05 19:55 | 47.52258 | 8.95353 | 12067 ft | 265 kts | 323° |
| 2026-05-05 19:55 | 47.53809 | 8.93889 | 11729 ft | 263 kts | 323° |
| 2026-05-05 19:55 | 47.55349 | 8.92443 | 11391 ft | 262 kts | 323° |
| 2026-05-05 19:56 | 47.56888 | 8.91000 | 11044 ft | 262 kts | 323° |
| 2026-05-05 19:56 | 47.58426 | 8.89556 | 10699 ft | 261 kts | 323° |
| 2026-05-05 19:56 | 47.59949 | 8.88129 | 10367 ft | 260 kts | 323° |
| 2026-05-05 19:56 | 47.61212 | 8.86311 | 10034 ft | 248 kts | 295° |
| 2026-05-05 19:57 | 47.61702 | 8.83935 | 9944 ft | 243 kts | 274° |
| 2026-05-05 19:57 | 47.61839 | 8.82289 | 9899 ft | 243 kts | 272° |
| 2026-05-05 19:57 | 47.61368 | 8.79156 | 9898 ft | 235 kts | 234° |
| 2026-05-05 19:57 | 47.60154 | 8.77589 | 9834 ft | 234 kts | 206° |
| 2026-05-05 19:58 | 47.58551 | 8.77153 | 9529 ft | 240 kts | 177° |
| 2026-05-05 19:58 | 47.56972 | 8.78013 | 9138 ft | 250 kts | 148° |
| 2026-05-05 19:58 | 47.55846 | 8.79998 | 8729 ft | 259 kts | 117° |
| 2026-05-05 19:58 | 47.55475 | 8.82626 | 8350 ft | 265 kts | 94° |
| 2026-05-05 19:59 | 47.55436 | 8.85354 | 7999 ft | 265 kts | 93° |
| 2026-05-05 19:59 | 47.55282 | 8.88045 | 7683 ft | 261 kts | 102° |
| 2026-05-05 19:59 | 47.54956 | 8.90698 | 7199 ft | 262 kts | 103° |
| 2026-05-05 19:59 | 47.54618 | 8.93339 | 6773 ft | 260 kts | 103° |
| 2026-05-05 20:00 | 47.54277 | 8.95967 | 6374 ft | 257 kts | 103° |
| 2026-05-05 20:00 | 47.53947 | 8.98484 | 6212 ft | 242 kts | 103° |
| 2026-05-05 20:00 | 47.53625 | 9.00883 | 6008 ft | 233 kts | 109° |
| 2026-05-05 20:00 | 47.52819 | 9.02900 | 5990 ft | 228 kts | 143° |
| 2026-05-05 20:01 | 47.51463 | 9.03916 | 5983 ft | 216 kts | 177° |
| 2026-05-05 20:01 | 47.50018 | 9.03676 | 5995 ft | 209 kts | 202° |
| 2026-05-05 20:01 | 47.48661 | 9.02973 | 5985 ft | 209 kts | 204° |
| 2026-05-05 20:01 | 47.47277 | 9.02236 | 5991 ft | 209 kts | 204° |
| 2026-05-05 20:02 | 47.45954 | 9.01394 | 5990 ft | 206 kts | 220° |
| 2026-05-05 20:02 | 47.45119 | 8.99760 | 5997 ft | 205 kts | 250° |
| 2026-05-05 20:02 | 47.44689 | 8.97758 | 5987 ft | 203 kts | 253° |
| 2026-05-05 20:02 | 47.44289 | 8.95761 | 5991 ft | 203 kts | 253° |
| 2026-05-05 20:03 | 47.43886 | 8.93745 | 5991 ft | 205 kts | 253° |
| 2026-05-05 20:03 | 47.43474 | 8.91720 | 5729 ft | 206 kts | 253° |
| 2026-05-05 20:03 | 47.43242 | 8.89613 | 5279 ft | 212 kts | 268° |
| 2026-05-05 20:03 | 47.43335 | 8.87367 | 5063 ft | 230 kts | 275° |
| 2026-05-05 20:04 | 47.43541 | 8.85051 | 5027 ft | 219 kts | 277° |
| 2026-05-05 20:04 | 47.43679 | 8.83623 | 4976 ft | 195 kts | 276° |
| 2026-05-05 20:04 | 47.43906 | 8.81173 | 5002 ft | 178 kts | 275° |
| 2026-05-05 20:04 | 47.44006 | 8.79967 | 4998 ft | 179 kts | 275° |
| 2026-05-05 20:05 | 47.44146 | 8.78167 | 4980 ft | 168 kts | 274° |
| 2026-05-05 20:05 | 47.44270 | 8.76523 | 5021 ft | 158 kts | 273° |
| 2026-05-05 20:05 | 47.44382 | 8.74994 | 4766 ft | 155 kts | 275° |
| 2026-05-05 20:05 | 47.44489 | 8.73414 | 4660 ft | 155 kts | 273° |
| 2026-05-05 20:06 | 47.44613 | 8.71777 | 4025 ft | 169 kts | 274° |
| 2026-05-05 20:06 | 47.44716 | 8.69970 | 3275 ft | 177 kts | 274° |
| 2026-05-05 20:06 | 47.44850 | 8.68219 | 2842 ft | 167 kts | 275° |
| 2026-05-05 20:06 | 47.44971 | 8.66598 | 2651 ft | 159 kts | 274° |
| 2026-05-05 20:07 | 47.45082 | 8.65050 | 2446 ft | 148 kts | 275° |
| 2026-05-05 20:07 | 47.45191 | 8.63607 | 2239 ft | 134 kts | 275° |
| 2026-05-05 20:07 | 47.45291 | 8.62241 | 2112 ft | 135 kts | 275° |
| 2026-05-05 20:07 | 47.45402 | 8.60868 | 2055 ft | 135 kts | 275° |
| 2026-05-05 20:08 | 47.45504 | 8.59497 | 1829 ft | 134 kts | 275° |
| 2026-05-05 20:08 | 47.45588 | 8.58134 | 1612 ft | 133 kts | 274° |
| 2026-05-05 20:08 | 47.45678 | 8.56773 | 1428 ft | 132 kts | 275° |
| 2026-05-05 20:08 | 47.45750 | 8.55555 | 1399 ft | 85 kts | 275° |
| 2026-05-05 20:09 | 47.45788 | 8.55067 | 1399 ft | 36 kts | 276° |
| 2026-05-05 20:09 | 47.45813 | 8.54708 | 1404 ft | 34 kts | 283° |
| 2026-05-05 20:09 | 47.45789 | 8.54384 | 1407 ft | 32 kts | 250° |
| 2026-05-05 20:09 | 47.45655 | 8.54215 | 1396 ft | 22 kts | 161° |
| 2026-05-05 20:10 | 47.45604 | 8.54326 | 1392 ft | 12 kts | 110° |
| 2026-05-05 20:10 | 47.45572 | 8.54455 | 1397 ft | 14 kts | 109° |
| 2026-05-05 20:10 | 47.45550 | 8.54560 | 1394 ft | 0 kts | 110° |